Time,TemperatureF,DewpointF,PressureIn,WindDirection,WindDirectionDegrees,WindSpeedMPH,WindSpeedGustMPH,Humidity,HourlyPrecipIn,Conditions,Clouds,dailyrainin,SoftwareType,DateUTC
2013-08-03 00:43:00,76.0,76.0,30.03,West,269,0.0,2.0,100,99.99,,,-99.99,,2013-08-03 04:43:00,
2013-08-03 01:42:00,76.0,76.0,30.03,North,0,0.0,0.0,100,99.99,,,-99.99,,2013-08-03 05:42:00,
2013-08-03 02:02:00,75.0,75.0,30.03,West,262,3.0,4.0,100,99.99,,,-99.99,,2013-08-03 06:02:00,
2013-08-03 02:33:00,75.0,75.0,30.03,WSW,252,3.0,5.0,100,99.99,,,-99.99,,2013-08-03 06:33:00,
2013-08-03 02:42:00,75.0,75.0,30.02,WSW,250,3.0,6.0,100,99.99,,,-99.99,,2013-08-03 06:42:00,
2013-08-03 02:52:00,75.0,75.0,30.02,SW,232,3.0,4.0,100,99.99,,,-99.99,,2013-08-03 06:52:00,
2013-08-03 03:02:00,75.0,75.0,30.02,WSW,242,2.0,4.0,100,99.99,,,-99.99,,2013-08-03 07:02:00,
2013-08-03 03:12:00,75.0,75.0,30.02,WSW,255,1.0,3.0,100,99.99,,,-99.99,,2013-08-03 07:12:00,
2013-08-03 03:32:00,75.0,75.0,30.02,West,267,1.0,2.0,100,99.99,,,-99.99,,2013-08-03 07:32:00,
2013-08-03 03:43:00,75.0,75.0,30.01,West,262,2.0,3.0,100,99.99,,,-99.99,,2013-08-03 07:43:00,
2013-08-03 03:52:00,75.0,75.0,30.01,WSW,243,3.0,6.0,100,99.99,,,-99.99,,2013-08-03 07:52:00,
2013-08-03 04:02:00,75.0,75.0,30.01,SW,225,2.0,4.0,100,99.99,,,-99.99,,2013-08-03 08:02:00,
2013-08-03 04:22:00,75.0,75.0,30.01,SW,222,4.0,5.0,100,99.99,,,-99.99,,2013-08-03 08:22:00,
2013-08-03 04:32:00,75.0,75.0,30.01,SSW,201,3.0,5.0,100,99.99,,,-99.99,,2013-08-03 08:32:00,
2013-08-03 04:43:00,75.0,75.0,30.01,WSW,246,3.0,5.0,100,99.99,,,-99.99,,2013-08-03 08:43:00,
2013-08-03 04:52:00,75.0,75.0,30.01,SW,218,3.0,5.0,100,99.99,,,-99.99,,2013-08-03 08:52:00,
2013-08-03 05:02:00,75.0,75.0,30.02,SSW,204,3.0,4.0,100,99.99,,,-99.99,,2013-08-03 09:02:00,
2013-08-03 05:12:00,75.0,75.0,30.01,SSW,212,2.0,4.0,100,99.99,,,-99.99,,2013-08-03 09:12:00,
2013-08-03 05:22:00,75.0,75.0,30.01,SSW,208,3.0,5.0,100,99.99,,,-99.99,,2013-08-03 09:22:00,
2013-08-03 05:32:00,75.0,75.0,30.01,SSW,208,1.0,3.0,100,99.99,,,-99.99,,2013-08-03 09:32:00,
2013-08-03 05:43:00,75.0,75.0,30.01,SW,231,2.0,3.0,100,99.99,,,-99.99,,2013-08-03 09:43:00,
2013-08-03 05:53:00,75.0,75.0,30.01,SSW,207,3.0,4.0,100,99.99,,,-99.99,,2013-08-03 09:53:00,
2013-08-03 06:02:00,75.0,75.0,30.02,SW,222,3.0,5.0,100,99.99,,,-99.99,,2013-08-03 10:02:00,
2013-08-03 06:12:00,75.0,75.0,30.02,SW,221,3.0,6.0,100,99.99,,,-99.99,,2013-08-03 10:12:00,
2013-08-03 06:32:00,75.0,75.0,30.03,SSW,210,4.0,5.0,100,99.99,,,-99.99,,2013-08-03 10:32:00,
2013-08-03 06:42:00,75.0,75.0,30.03,SW,215,4.0,6.0,100,99.99,,,-99.99,,2013-08-03 10:42:00,
2013-08-03 06:53:00,75.0,75.0,30.03,SSW,197,3.0,5.0,100,99.99,,,-99.99,,2013-08-03 10:53:00,
2013-08-03 07:02:00,75.0,75.0,30.04,SW,218,3.0,4.0,100,99.99,,,-99.99,,2013-08-03 11:02:00,
2013-08-03 07:32:00,75.0,75.0,30.05,SSW,210,4.0,5.0,100,99.99,,,-99.99,,2013-08-03 11:32:00,
2013-08-03 07:43:00,76.0,76.0,30.05,SSW,198,3.0,5.0,100,99.99,,,-99.99,,2013-08-03 11:43:00,
2013-08-03 07:53:00,76.0,76.0,30.05,SW,214,3.0,5.0,100,99.99,,,-99.99,,2013-08-03 11:53:00,
2013-08-03 08:12:00,76.0,76.0,30.05,SW,236,3.0,5.0,100,99.99,,,-99.99,,2013-08-03 12:12:00,
2013-08-03 08:22:00,76.0,76.0,30.05,SSW,204,2.0,4.0,100,99.99,,,-99.99,,2013-08-03 12:22:00,
2013-08-03 08:33:00,76.0,76.0,30.05,SW,214,3.0,5.0,100,99.99,,,-99.99,,2013-08-03 12:33:00,
2013-08-03 08:43:00,77.0,77.0,30.06,SSW,201,3.0,5.0,100,99.99,,,-99.99,,2013-08-03 12:43:00,
2013-08-03 08:52:00,77.0,77.0,30.06,SSW,197,4.0,5.0,100,99.99,,,-99.99,,2013-08-03 12:52:00,
2013-08-03 09:02:00,77.0,77.0,30.06,SSW,212,3.0,6.0,100,99.99,,,-99.99,,2013-08-03 13:02:00,
2013-08-03 09:12:00,78.0,78.0,30.06,SSW,198,3.0,5.0,100,99.99,,,-99.99,,2013-08-03 13:12:00,
2013-08-03 09:52:00,81.0,81.0,30.07,SW,217,4.0,7.0,100,99.99,,,-99.99,,2013-08-03 13:52:00,
2013-08-03 10:02:00,81.0,81.0,30.07,SW,217,3.0,5.0,100,99.99,,,-99.99,,2013-08-03 14:02:00,
2013-08-03 10:13:00,81.0,81.0,30.07,SW,217,3.0,5.0,100,99.99,,,-99.99,,2013-08-03 14:13:00,
2013-08-03 10:22:00,81.0,80.0,30.07,SSW,211,3.0,5.0,98,99.99,,,-99.99,,2013-08-03 14:22:00,
2013-08-03 10:33:00,82.0,81.0,30.08,SW,217,2.0,4.0,97,99.99,,,-99.99,,2013-08-03 14:33:00,
2013-08-03 10:42:00,82.0,81.0,30.08,WSW,243,2.0,3.0,97,99.99,,,-99.99,,2013-08-03 14:42:00,
2013-08-03 10:52:00,83.0,82.0,30.08,SSE,166,3.0,4.0,96,99.99,,,-99.99,,2013-08-03 14:52:00,
2013-08-03 11:02:00,83.0,81.0,30.08,South,184,2.0,4.0,95,99.99,,,-99.99,,2013-08-03 15:02:00,
2013-08-03 11:12:00,83.0,81.0,30.08,South,184,2.0,4.0,95,99.99,,,-99.99,,2013-08-03 15:12:00,
2013-08-03 11:23:00,84.0,80.0,30.08,South,179,5.0,8.0,88,99.99,,,-99.99,,2013-08-03 15:23:00,
2013-08-03 11:32:00,85.0,80.0,30.08,South,174,3.0,7.0,86,99.99,,,-99.99,,2013-08-03 15:32:00,
2013-08-03 11:43:00,85.0,78.0,30.08,South,169,3.0,6.0,79,99.99,,,-99.99,,2013-08-03 15:43:00,
2013-08-03 11:53:00,85.0,78.0,30.08,SSW,195,4.0,8.0,81,99.99,,,-99.99,,2013-08-03 15:53:00,
2013-08-03 12:02:00,86.0,78.0,30.08,SSW,200,2.0,5.0,77,99.99,,,-99.99,,2013-08-03 16:02:00,
2013-08-03 12:12:00,86.0,78.0,30.08,SSE,152,1.0,5.0,77,99.99,,,-99.99,,2013-08-03 16:12:00,
2013-08-03 12:23:00,88.0,77.0,30.08,WSW,242,2.0,6.0,71,99.99,,,-99.99,,2013-08-03 16:23:00,
2013-08-03 12:33:00,88.0,76.0,30.08,SSW,193,4.0,6.0,68,99.99,,,-99.99,,2013-08-03 16:33:00,
2013-08-03 12:43:00,89.0,76.0,30.08,WSW,250,5.0,8.0,66,99.99,,,-99.99,,2013-08-03 16:43:00,
2013-08-03 12:53:00,89.0,76.0,30.08,SSW,197,3.0,7.0,65,99.99,,,-99.99,,2013-08-03 16:53:00,
2013-08-03 13:03:00,89.0,77.0,30.08,WSW,250,1.0,4.0,67,99.99,,,-99.99,,2013-08-03 17:03:00,
2013-08-03 13:12:00,89.0,75.0,30.08,SSW,211,4.0,8.0,63,99.99,,,-99.99,,2013-08-03 17:12:00,
2013-08-03 13:22:00,90.0,76.0,30.07,SW,218,4.0,7.0,63,99.99,,,-99.99,,2013-08-03 17:22:00,
2013-08-03 13:32:00,89.0,76.0,30.07,South,172,3.0,9.0,65,99.99,,,-99.99,,2013-08-03 17:32:00,
2013-08-03 13:43:00,89.0,76.0,30.06,SE,145,9.0,15.0,66,99.99,,,-99.99,,2013-08-03 17:43:00,
2013-08-03 13:52:00,88.0,77.0,30.06,SSE,159,10.0,14.0,69,99.99,,,-99.99,,2013-08-03 17:52:00,
2013-08-03 14:02:00,87.0,73.0,30.06,South,170,8.0,11.0,63,99.99,,,-99.99,,2013-08-03 18:02:00,
2013-08-03 14:12:00,88.0,74.0,30.06,SE,136,7.0,10.0,64,99.99,,,-99.99,,2013-08-03 18:12:00,
2013-08-03 14:22:00,88.0,75.0,30.06,SSE,155,7.0,10.0,66,99.99,,,-99.99,,2013-08-03 18:22:00,
2013-08-03 14:32:00,89.0,73.0,30.05,SSW,193,7.0,10.0,59,99.99,,,-99.99,,2013-08-03 18:32:00,
2013-08-03 14:43:00,90.0,75.0,30.05,South,170,6.0,9.0,62,99.99,,,-99.99,,2013-08-03 18:43:00,
2013-08-03 14:53:00,89.0,73.0,30.06,SSE,166,4.0,7.0,60,99.99,,,-99.99,,2013-08-03 18:53:00,
2013-08-03 15:02:00,86.0,77.0,30.09,West,263,14.0,25.0,75,99.99,,,-99.99,,2013-08-03 19:02:00,
2013-08-03 16:02:00,75.0,74.0,30.06,West,266,1.0,3.0,98,99.99,,,-99.99,,2013-08-03 20:02:00,
2013-08-03 16:12:00,75.0,75.0,30.07,South,170,5.0,11.0,99,99.99,,,-99.99,,2013-08-03 20:12:00,
2013-08-03 16:22:00,75.0,75.0,30.08,South,181,7.0,12.0,100,99.99,,,-99.99,,2013-08-03 20:22:00,
2013-08-03 16:32:00,75.0,75.0,30.07,South,177,6.0,9.0,100,99.99,,,-99.99,,2013-08-03 20:32:00,
2013-08-03 16:42:00,76.0,76.0,30.08,SSE,152,7.0,11.0,100,99.99,,,-99.99,,2013-08-03 20:42:00,
2013-08-03 16:52:00,76.0,76.0,30.08,South,183,7.0,11.0,100,99.99,,,-99.99,,2013-08-03 20:52:00,
2013-08-03 17:02:00,76.0,76.0,30.08,South,180,5.0,9.0,100,99.99,,,-99.99,,2013-08-03 21:02:00,
2013-08-03 17:12:00,76.0,76.0,30.07,SW,215,5.0,10.0,100,99.99,,,-99.99,,2013-08-03 21:12:00,
2013-08-03 17:22:00,76.0,76.0,30.08,WSW,239,4.0,6.0,100,99.99,,,-99.99,,2013-08-03 21:22:00,
2013-08-03 17:32:00,76.0,76.0,30.07,WSW,255,4.0,6.0,100,99.99,,,-99.99,,2013-08-03 21:32:00,
2013-08-03 17:42:00,76.0,76.0,30.07,WSW,257,2.0,4.0,100,99.99,,,-99.99,,2013-08-03 21:42:00,
2013-08-03 17:52:00,76.0,76.0,30.07,West,264,1.0,4.0,100,99.99,,,-99.99,,2013-08-03 21:52:00,
2013-08-03 18:02:00,76.0,76.0,30.07,SSW,211,1.0,3.0,100,99.99,,,-99.99,,2013-08-03 22:02:00,
2013-08-03 18:12:00,76.0,76.0,30.09,SSW,211,1.0,2.0,100,99.99,,,-99.99,,2013-08-03 22:12:00,
2013-08-03 18:22:00,76.0,76.0,30.10,North,0,0.0,0.0,100,99.99,,,-99.99,,2013-08-03 22:22:00,
2013-08-03 18:33:00,76.0,76.0,30.10,SW,226,1.0,2.0,100,99.99,,,-99.99,,2013-08-03 22:33:00,
2013-08-03 18:43:00,76.0,76.0,30.10,SSW,197,2.0,4.0,100,99.99,,,-99.99,,2013-08-03 22:43:00,
2013-08-03 18:52:00,76.0,76.0,30.09,SSE,148,4.0,6.0,100,99.99,,,-99.99,,2013-08-03 22:52:00,
2013-08-03 19:02:00,76.0,76.0,30.08,SSE,158,5.0,8.0,100,99.99,,,-99.99,,2013-08-03 23:02:00,
2013-08-03 19:12:00,75.0,75.0,30.08,South,176,5.0,8.0,100,99.99,,,-99.99,,2013-08-03 23:12:00,
2013-08-03 19:22:00,75.0,75.0,30.08,SSE,160,4.0,6.0,100,99.99,,,-99.99,,2013-08-03 23:22:00,
2013-08-03 19:32:00,75.0,75.0,30.08,SSE,166,3.0,6.0,100,99.99,,,-99.99,,2013-08-03 23:32:00,
2013-08-03 19:43:00,76.0,76.0,30.07,SSE,162,6.0,9.0,100,99.99,,,-99.99,,2013-08-03 23:43:00,
2013-08-03 19:52:00,76.0,76.0,30.07,SSE,165,5.0,7.0,100,99.99,,,-99.99,,2013-08-03 23:52:00,
2013-08-03 20:02:00,75.0,75.0,30.06,South,181,5.0,7.0,100,99.99,,,-99.99,,2013-08-04 00:02:00,
2013-08-03 20:12:00,75.0,75.0,30.06,South,172,4.0,6.0,100,99.99,,,-99.99,,2013-08-04 00:12:00,
2013-08-03 20:22:00,75.0,75.0,30.06,South,190,3.0,5.0,100,99.99,,,-99.99,,2013-08-04 00:22:00,
2013-08-03 20:32:00,75.0,75.0,30.07,South,172,2.0,5.0,100,99.99,,,-99.99,,2013-08-04 00:32:00,
2013-08-03 20:42:00,75.0,75.0,30.07,SE,143,3.0,4.0,100,99.99,,,-99.99,,2013-08-04 00:42:00,
2013-08-03 20:53:00,75.0,75.0,30.07,SE,143,3.0,4.0,100,99.99,,,-99.99,,2013-08-04 00:53:00,
2013-08-03 21:02:00,75.0,75.0,30.08,SE,125,2.0,4.0,100,99.99,,,-99.99,,2013-08-04 01:02:00,
2013-08-03 21:12:00,76.0,76.0,30.08,South,176,2.0,4.0,100,99.99,,,-99.99,,2013-08-04 01:12:00,
2013-08-03 21:22:00,76.0,76.0,30.08,South,181,2.0,4.0,100,99.99,,,-99.99,,2013-08-04 01:22:00,
2013-08-03 21:32:00,76.0,76.0,30.08,SSW,205,1.0,3.0,100,99.99,,,-99.99,,2013-08-04 01:32:00,
2013-08-03 21:42:00,76.0,76.0,30.08,SSW,205,1.0,3.0,100,99.99,,,-99.99,,2013-08-04 01:42:00,
2013-08-03 21:53:00,76.0,76.0,30.08,SSW,205,1.0,3.0,100,99.99,,,-99.99,,2013-08-04 01:53:00,
2013-08-03 22:03:00,76.0,76.0,30.07,SSW,208,2.0,5.0,100,99.99,,,-99.99,,2013-08-04 02:03:00,
2013-08-03 22:12:00,76.0,76.0,30.08,South,177,1.0,3.0,100,99.99,,,-99.99,,2013-08-04 02:12:00,
2013-08-03 22:22:00,75.0,75.0,30.08,South,179,0.0,0.0,100,99.99,,,-99.99,,2013-08-04 02:22:00,
2013-08-03 22:32:00,75.0,75.0,30.08,South,179,0.0,0.0,100,99.99,,,-99.99,,2013-08-04 02:32:00,
2013-08-03 22:42:00,76.0,76.0,30.09,SSW,204,3.0,4.0,100,99.99,,,-99.99,,2013-08-04 02:42:00,
2013-08-03 22:52:00,76.0,76.0,30.09,SSW,211,4.0,6.0,100,99.99,,,-99.99,,2013-08-04 02:52:00,
2013-08-03 23:02:00,76.0,76.0,30.09,SSW,211,4.0,6.0,100,99.99,,,-99.99,,2013-08-04 03:02:00,
2013-08-03 23:12:00,76.0,76.0,30.09,SSW,210,4.0,7.0,100,99.99,,,-99.99,,2013-08-04 03:12:00,
2013-08-03 23:22:00,76.0,76.0,30.09,SSW,210,5.0,8.0,100,99.99,,,-99.99,,2013-08-04 03:22:00,
2013-08-03 23:32:00,76.0,76.0,30.09,SSW,198,5.0,8.0,100,99.99,,,-99.99,,2013-08-04 03:32:00,
2013-08-03 23:42:00,76.0,76.0,30.09,South,183,4.0,7.0,100,99.99,,,-99.99,,2013-08-04 03:42:00,
2013-08-03 23:52:00,76.0,76.0,30.09,SSE,166,4.0,7.0,100,99.99,,,-99.99,,2013-08-04 03:52:00,